Dortmund, Germany

10:28 AM CEST on July 31, 2016 (GMT +0200)
Dortmund | | Change Station

Elev 417 ft 51.52 °N, 7.61 °E | Updated 8 minutes ago

Scattered Clouds
Scattered Clouds
64 °F
Feels Like 64 °F
N
5
Wind Variable Wind from West

Today
High -- | Low -- °F
--% Chance of Precip.
Yesterday
High -- | Low -- °F
Precip. -- in
Pressure 29.92 in
Visibility 6.2 miles
Clouds Scattered Clouds 2000 ft
Dew Point 54 °F
Humidity 68%
Rainfall 0.00 in
Snow Depth Not available.
5:52 AM 9:18 PM
Waning Crescent, 8% visible
METAR EDLW 310820Z 27004KT 9999 SCT020 18/12 Q1013
Pressure 29.92 in
Visibility 6.2 miles
Clouds Scattered Clouds 2000 ft
Dew Point 54 °F
Humidity 68%
Rainfall 0.00 in
Snow Depth Not available.
5:52 AM 9:18 PM
Waning Crescent, 8% visible
METAR EDLW 310820Z 27004KT 9999 SCT020 18/12 Q1013

10-Day Weather Forecast

×

Almanac

Astronomy

Jul. 31, 2016 Rise Set
Actual Time
Civil Twilight
Nautical Twilight
Astronomical Twilight
Moon
Length of Visible Light
Length of Day
Tomorrow will be .
, % of the Moon is Illuminated

Today's Extremes

Country Highs Country Lows

Community

WunderPhotos

Upload Photos

1,928,768 photos uploaded!

WunderBlog® & News

Nearby

Air Quality

  Air Quality AQ Index Pollutant
Not available.

Snow Depth

Station Depth Elevation

Earthquake Activity

City Distance Mag. Time & Date
Minimum magnitude displayed is 2.5.

Coastal Water Temperatures

Place Temperature

Stations

Nearby Weather Stations

Station Location Temp. Windchill Dew Point Humidity Wind Precip. Elev Updated Type